OEJN/JED METAR and TAF weather

Enter ICAO airport designator
Station Type Date Time Source
OEJN METAR 2021/05/14 08:00 UTC NOAA

OEJN 140800Z 33014KT CAVOK 37/07 Q1008 NOSIG


Station Type Date Time Source
OEJN Decoded METAR 2021/05/14 08:00 UTC NOAA

Jeddah King Abdul Aziz International Airport , Saudi Arabia (OEJN) 21-42N 039-11E 17M
May 14, 2021 - 04:00 AM EDT / 2021.05.14 0800 UTC
Wind: from the NNW (330 degrees) at 16 MPH (14 KT):0
Visibility: greater than 7 mile(s):0
Temperature: 98 F (37 C)
Dew Point: 44 F (7 C)
Relative Humidity: 15%
Pressure (altimeter): 29.77 in. Hg (1008 hPa)
ob: OEJN 140800Z 33014KT CAVOK 37/07 Q1008 NOSIG
cycle: 8

Station Type Date Time Source
OEJN TAF 2021/05/14 06:33 UTC NOAA

TAF OEJN 140500Z 1406/1512 36006KT CAVOK
BECMG 1406/1408 36016KT
BECMG 1500/1502 36006KT

Example: see airport list